Time;durP1;ratioP1;P1;durP2;ratioP2;P2;SDS_P1;SDS_P2;PMS_P1;PMS_P2;Temp;Humidity;BMP_temperature;BMP_pressure;BME280_temperature;BME280_humidity;BME280_pressure;Samples;Min_cycle;Max_cycle;Signal;HPM_P1;HPM_P2
2021/12/25 00:00:58;;;;;;;0.30;0.27;;;0.90;99.90;;;;;;4980480;28;20049;-79
2021/12/25 00:03:24;;;;;;;2.00;0.87;;;0.90;99.90;;;;;;4981240;28;20061;-78
2021/12/25 00:05:52;;;;;;;0.67;0.67;;;0.90;99.90;;;;;;4981397;28;20073;-78
2021/12/25 00:08:22;;;;;;;0.30;0.30;;;0.90;99.90;;;;;;4966414;28;20057;-79
2021/12/25 00:10:48;;;;;;;0.67;0.40;;;0.80;99.90;;;;;;4951414;28;20045;-79
2021/12/25 00:13:15;;;;;;;0.40;0.40;;;0.80;99.90;;;;;;4984689;28;20069;-79
2021/12/25 00:15:42;;;;;;;5.30;0.63;;;0.80;99.90;;;;;;4983972;28;20054;-78
2021/12/25 00:18:08;;;;;;;0.20;0.20;;;0.80;99.90;;;;;;4966959;28;20062;-79
2021/12/25 00:20:34;;;;;;;2.23;0.83;;;0.70;99.90;;;;;;4967248;28;20062;-79
2021/12/25 00:23:04;;;;;;;0.97;0.97;;;0.70;99.90;;;;;;4984606;28;20056;-79
2021/12/25 00:25:33;;;;;;;0.70;0.70;;;0.70;99.90;;;;;;4984566;28;20081;-79
2021/12/25 00:28:15;;;;;;;0.00;0.00;;;0.70;99.90;;;;;;4984312;28;20538;-79
2021/12/25 00:30:47;;;;;;;1.00;0.65;;;0.60;99.90;;;;;;5000849;28;20177;-79
2021/12/25 00:36:00;;;;;;;10.33;0.90;;;0.60;99.90;;;;;;5003447;28;20104;-79
2021/12/25 00:38:26;;;;;;;13.43;0.67;;;0.60;99.90;;;;;;5004065;28;20033;-79
2021/12/25 00:40:51;;;;;;;0.00;0.00;;;0.60;99.90;;;;;;4986242;28;20100;-79
2021/12/25 00:43:17;;;;;;;0.67;0.67;;;0.60;99.90;;;;;;5004295;28;20562;-79
2021/12/25 00:45:42;;;;;;;0.43;0.40;;;0.60;99.90;;;;;;5003061;28;20073;-79
2021/12/25 00:48:08;;;;;;;1.10;0.37;;;0.60;99.90;;;;;;4985813;28;20056;-79
2021/12/25 00:50:33;;;;;;;0.10;0.10;;;0.60;99.90;;;;;;5003984;28;20030;-79
2021/12/25 00:52:59;;;;;;;0.00;0.00;;;0.50;99.90;;;;;;4970093;28;20050;-79
2021/12/25 00:55:25;;;;;;;1.27;0.87;;;0.50;99.90;;;;;;5003642;28;20078;-79
2021/12/25 00:57:51;;;;;;;0.33;0.33;;;0.50;99.90;;;;;;5003471;28;20030;-79
2021/12/25 01:00:18;;;;;;;0.10;0.10;;;0.40;99.90;;;;;;5002875;28;20042;-79
2021/12/25 01:02:46;;;;;;;1.47;0.60;;;0.40;99.90;;;;;;4985833;28;20801;-78
2021/12/25 01:05:14;;;;;;;1.30;1.20;;;0.40;99.90;;;;;;5003149;28;20056;-78
2021/12/25 01:07:40;;;;;;;0.33;0.33;;;0.40;99.90;;;;;;5003658;28;20049;-79
2021/12/25 01:10:13;;;;;;;0.47;0.47;;;0.30;99.90;;;;;;5003008;28;20107;-78
2021/12/25 01:15:33;;;;;;;0.00;0.00;;;0.30;99.90;;;;;;4984665;28;20052;-79
2021/12/25 01:21:13;;;;;;;0.73;0.73;;;0.30;99.90;;;;;;4984584;28;20057;-79
2021/12/25 01:29:19;;;;;;;1.53;0.87;;;0.10;99.90;;;;;;4999170;28;20052;-79
2021/12/25 01:32:12;;;;;;;0.73;0.73;;;0.00;99.90;;;;;;4966075;28;20132;-78
2021/12/25 01:35:05;;;;;;;0.60;0.60;;;0.00;99.90;;;;;;4966054;28;20073;-79
2021/12/25 01:48:13;;;;;;;1.90;0.43;;;0.00;99.90;;;;;;4965878;28;20077;-78
2021/12/25 01:50:39;;;;;;;0.60;0.43;;;-0.10;99.90;;;;;;4965922;28;20046;-78
2021/12/25 01:53:04;;;;;;;0.13;0.10;;;-0.10;99.90;;;;;;4965092;28;20489;-79
2021/12/25 01:55:30;;;;;;;0.27;0.27;;;-0.10;99.90;;;;;;4982783;28;20776;-78
2021/12/25 01:57:59;;;;;;;0.43;0.43;;;-0.20;99.90;;;;;;4949568;28;20051;-78
2021/12/25 02:00:34;;;;;;;2.40;0.73;;;-0.20;99.90;;;;;;4981781;28;20133;-78
2021/12/25 02:03:00;;;;;;;0.20;0.20;;;-0.20;99.90;;;;;;4982591;28;20058;-78
2021/12/25 02:05:26;;;;;;;0.10;0.10;;;-0.20;99.90;;;;;;4965024;28;20046;-78
2021/12/25 02:07:52;;;;;;;1.60;0.30;;;-0.30;99.90;;;;;;4982732;28;20066;-78
2021/12/25 02:10:19;;;;;;;0.43;0.43;;;-0.30;99.90;;;;;;4983124;28;20444;-78
2021/12/25 02:12:46;;;;;;;0.40;0.40;;;-0.30;99.90;;;;;;4965400;28;20498;-79
2021/12/25 02:15:16;;;;;;;0.10;0.10;;;-0.30;99.90;;;;;;4964269;28;20121;-78
2021/12/25 02:20:28;;;;;;;0.60;0.47;;;-0.40;99.90;;;;;;4965543;28;20054;-78
2021/12/25 02:23:00;;;;;;;0.00;0.00;;;-0.40;99.90;;;;;;4965461;28;20508;-79
2021/12/25 02:25:27;;;;;;;0.00;0.00;;;-0.50;99.90;;;;;;4982234;28;20137;-79
2021/12/25 02:27:52;;;;;;;0.73;0.63;;;-0.50;99.90;;;;;;4982397;28;20038;-78
2021/12/25 02:30:18;;;;;;;0.57;0.47;;;-0.60;99.90;;;;;;4995809;28;20100;-79
2021/12/25 02:32:45;;;;;;;1.23;0.37;;;-0.60;99.90;;;;;;5001542;28;20187;-78
2021/12/25 02:35:13;;;;;;;0.07;0.07;;;-0.60;99.90;;;;;;5001208;28;20050;-78
2021/12/25 02:37:39;;;;;;;0.00;0.00;;;-0.60;99.90;;;;;;5001654;28;20076;-78
2021/12/25 02:40:07;;;;;;;4.43;0.47;;;-0.70;99.90;;;;;;5001316;28;20037;-79
2021/12/25 02:42:34;;;;;;;0.50;0.50;;;-0.70;99.90;;;;;;5002012;28;20088;-78
2021/12/25 02:45:00;;;;;;;0.10;0.10;;;-0.70;99.90;;;;;;5000329;28;20046;-78
2021/12/25 02:47:29;;;;;;;0.00;0.00;;;-0.70;99.90;;;;;;5001675;28;20441;-79
2021/12/25 02:49:55;;;;;;;0.20;0.20;;;-0.80;99.90;;;;;;4983781;28;20053;-79
2021/12/25 02:52:20;;;;;;;0.27;0.13;;;-0.80;99.90;;;;;;4984224;28;20046;-77
2021/12/25 02:54:46;;;;;;;0.30;0.13;;;-0.80;99.90;;;;;;5001927;28;20038;-78
2021/12/25 02:57:12;;;;;;;0.00;0.00;;;-0.80;99.90;;;;;;5001523;28;20096;-78
2021/12/25 02:59:39;;;;;;;0.40;0.10;;;-0.80;99.90;;;;;;4982707;28;20042;-78
2021/12/25 03:02:14;;;;;;;0.00;0.00;;;-0.80;99.90;;;;;;4983380;28;20061;-78
2021/12/25 03:04:42;;;;;;;2.10;0.50;;;-0.90;99.90;;;;;;4983920;28;20312;-79
2021/12/25 03:07:09;;;;;;;0.10;0.10;;;-0.90;99.90;;;;;;5001118;28;20081;-78
2021/12/25 03:09:35;;;;;;;0.10;0.10;;;-1.00;99.90;;;;;;5001695;28;20073;-78
2021/12/25 03:12:02;;;;;;;0.00;0.00;;;-1.00;99.90;;;;;;5000817;28;20508;-78
2021/12/25 03:14:40;;;;;;;0.23;0.23;;;-1.00;99.90;;;;;;5001025;28;20050;-78
2021/12/25 03:17:05;;;;;;;0.73;0.40;;;-1.00;99.90;;;;;;4967367;28;20081;-78
2021/12/25 03:19:33;;;;;;;0.00;0.00;;;-1.00;99.90;;;;;;5001349;28;20504;-78
2021/12/25 03:22:00;;;;;;;0.00;0.00;;;-1.00;99.90;;;;;;5001082;28;20448;-78
2021/12/25 03:24:27;;;;;;;1.43;0.37;;;-1.00;99.90;;;;;;4983763;28;20054;-79
2021/12/25 03:26:56;;;;;;;0.00;0.00;;;-1.00;99.90;;;;;;4983502;28;20038;-78
2021/12/25 03:29:26;;;;;;;0.13;0.13;;;-1.10;99.90;;;;;;4993285;28;20042;-78
2021/12/25 03:31:52;;;;;;;0.07;0.07;;;-1.10;99.90;;;;;;4981219;28;20069;-79
2021/12/25 03:34:18;;;;;;;0.00;0.00;;;-1.10;99.90;;;;;;4964522;28;20046;-78
2021/12/25 03:36:44;;;;;;;0.17;0.17;;;-1.00;99.90;;;;;;4981696;28;20054;-78
2021/12/25 03:39:10;;;;;;;0.00;0.00;;;-1.10;99.90;;;;;;4981123;28;20042;-78
2021/12/25 03:41:36;;;;;;;0.10;0.07;;;-1.10;99.90;;;;;;4980219;28;20057;-79
2021/12/25 03:44:02;;;;;;;0.20;0.20;;;-1.10;99.90;;;;;;4983429;28;20125;-78
2021/12/25 03:46:29;;;;;;;0.67;0.47;;;-1.10;99.90;;;;;;4985208;28;20046;-78
2021/12/25 03:49:03;;;;;;;0.00;0.00;;;-1.20;99.90;;;;;;4967173;28;20054;-79
2021/12/25 03:59:47;;;;;;;0.00;0.00;;;-1.30;99.90;;;;;;4983833;28;20054;-78
2021/12/25 04:02:19;;;;;;;0.00;0.00;;;-1.40;99.90;;;;;;4985098;28;20497;-78
2021/12/25 04:04:48;;;;;;;;;;;-1.40;99.90;;;;;;4985705;28;20058;-78
2021/12/25 04:09:41;;;;;;;0.00;0.00;;;-1.40;99.90;;;;;;4984752;28;20054;-78
2021/12/25 04:12:10;;;;;;;0.00;0.00;;;-1.40;99.90;;;;;;4966938;28;20552;-78
2021/12/25 04:14:36;;;;;;;0.40;0.33;;;-1.50;99.90;;;;;;4966455;28;20042;-78
2021/12/25 04:17:02;;;;;;;0.10;0.10;;;-1.50;99.90;;;;;;4984241;28;20054;-78
2021/12/25 04:19:27;;;;;;;0.30;0.07;;;-1.50;99.90;;;;;;4985034;28;20042;-78
2021/12/25 04:21:58;;;;;;;0.10;0.10;;;-1.50;99.90;;;;;;4984745;28;20408;-78
2021/12/25 04:24:26;;;;;;;0.00;0.00;;;-1.50;99.90;;;;;;4967150;28;20591;-78
2021/12/25 04:26:52;;;;;;;0.00;0.00;;;-1.50;99.90;;;;;;4984617;28;20042;-78
2021/12/25 04:47:45;;;;;;;0.00;0.00;;;-1.60;99.90;;;;;;5003912;28;20061;-78
2021/12/25 05:04:44;;;;;;;0.93;0.30;;;-1.70;99.90;;;;;;5003753;28;20050;-78
2021/12/25 05:07:12;;;;;;;0.10;0.10;;;-1.80;99.90;;;;;;5003240;28;20512;-78
2021/12/25 05:09:38;;;;;;;0.10;0.10;;;-1.80;99.90;;;;;;4986256;28;20069;-78
2021/12/25 05:12:04;;;;;;;0.00;0.00;;;-1.80;99.90;;;;;;4985520;28;20045;-78
2021/12/25 05:14:29;;;;;;;0.20;0.20;;;-1.80;99.90;;;;;;5002553;28;20050;-78
2021/12/25 05:16:55;;;;;;;0.03;0.03;;;-1.80;99.90;;;;;;5003203;28;20513;-78
2021/12/25 05:19:21;;;;;;;0.00;0.00;;;-1.80;99.90;;;;;;4985744;28;20050;-78
2021/12/25 05:21:47;;;;;;;3.30;0.30;;;-1.80;99.90;;;;;;5003626;28;20034;-78
2021/12/25 05:24:12;;;;;;;0.50;0.20;;;-1.80;99.90;;;;;;5002633;28;20110;-78
2021/12/25 05:26:38;;;;;;;0.00;0.00;;;-1.80;99.90;;;;;;5003415;28;20500;-78
2021/12/25 05:29:05;;;;;;;0.63;0.20;;;-1.80;99.90;;;;;;4979523;28;20536;-78
2021/12/25 05:31:32;;;;;;;0.10;0.10;;;-1.80;99.90;;;;;;4983739;28;20042;-78
2021/12/25 05:33:58;;;;;;;0.00;0.00;;;-1.80;99.90;;;;;;4983474;28;20052;-78
2021/12/25 05:36:26;;;;;;;0.87;0.50;;;-1.80;99.90;;;;;;4983222;28;20497;-78
2021/12/25 05:38:56;;;;;;;0.00;0.00;;;-1.80;99.90;;;;;;4983613;28;20088;-77
2021/12/25 05:41:23;;;;;;;0.00;0.00;;;-1.80;99.90;;;;;;4982948;28;20093;-77
2021/12/25 05:43:49;;;;;;;0.20;0.13;;;-1.80;99.90;;;;;;4965286;28;20069;-78
2021/12/25 05:46:14;;;;;;;0.00;0.00;;;-1.80;99.90;;;;;;4982952;28;20501;-78
2021/12/25 05:48:40;;;;;;;0.43;0.20;;;-1.80;99.90;;;;;;4983300;28;20052;-77
2021/12/25 05:51:06;;;;;;;0.40;0.40;;;-1.90;99.90;;;;;;4965754;28;20057;-78
2021/12/25 05:53:33;;;;;;;0.00;0.00;;;-1.90;99.90;;;;;;4981746;28;20046;-78
2021/12/25 05:55:58;;;;;;;0.07;0.07;;;-1.90;99.90;;;;;;4982761;28;20047;-78
2021/12/25 05:58:24;;;;;;;0.00;0.00;;;-1.90;99.90;;;;;;4981976;28;20786;-77
2021/12/25 06:00:50;;;;;;;0.00;0.00;;;-1.90;99.90;;;;;;4983456;28;20050;-78
2021/12/25 06:03:16;;;;;;;0.00;0.00;;;-1.90;99.90;;;;;;4983321;28;20061;-78
2021/12/25 06:05:41;;;;;;;0.00;0.00;;;-1.90;99.90;;;;;;4982168;28;20046;-78
2021/12/25 06:08:07;;;;;;;1.53;0.33;;;-1.90;99.90;;;;;;4965168;28;20050;-78
2021/12/25 06:10:33;;;;;;;0.20;0.10;;;-2.00;99.90;;;;;;4982880;28;20081;-78
2021/12/25 06:13:00;;;;;;;0.00;0.00;;;-1.90;99.90;;;;;;4981885;28;20117;-78
2021/12/25 06:15:26;;;;;;;0.00;0.00;;;-1.90;99.90;;;;;;4982715;28;20476;-78
2021/12/25 06:17:52;;;;;;;0.00;0.00;;;-2.00;99.90;;;;;;4982423;28;20117;-78
2021/12/25 06:20:19;;;;;;;0.00;0.00;;;-1.90;99.90;;;;;;4983246;28;20104;-78
2021/12/25 06:22:44;;;;;;;0.60;0.60;;;-1.90;99.90;;;;;;4982536;28;20468;-78
2021/12/25 06:25:10;;;;;;;5.20;0.20;;;-1.90;99.90;;;;;;4964913;28;20274;-78
2021/12/25 06:27:37;;;;;;;0.13;0.13;;;-1.90;99.90;;;;;;4982577;28;20038;-77
2021/12/25 06:30:04;;;;;;;0.00;0.00;;;-1.90;99.90;;;;;;4992290;28;20049;-78
2021/12/25 06:32:30;;;;;;;0.00;0.00;;;-1.90;99.90;;;;;;5002324;28;20772;-78
2021/12/25 06:34:55;;;;;;;0.40;0.40;;;-1.90;99.90;;;;;;5001645;28;20152;-78
2021/12/25 06:37:21;;;;;;;0.00;0.00;;;-1.90;99.90;;;;;;5002305;28;20038;-77
2021/12/25 06:39:48;;;;;;;0.00;0.00;;;-1.90;99.90;;;;;;5002414;28;20138;-78
2021/12/25 06:42:14;;;;;;;0.00;0.00;;;-2.00;99.90;;;;;;5001859;28;20041;-78
2021/12/25 06:44:39;;;;;;;0.10;0.10;;;-2.00;99.90;;;;;;5000974;28;20046;-78
2021/12/25 06:47:05;;;;;;;0.00;0.00;;;-2.00;99.90;;;;;;5001476;28;20044;-78
2021/12/25 06:49:31;;;;;;;0.00;0.00;;;-2.00;99.90;;;;;;4984621;28;20042;-78
2021/12/25 06:51:57;;;;;;;0.10;0.10;;;-2.10;99.90;;;;;;4984312;28;20046;-78
2021/12/25 06:54:23;;;;;;;0.10;0.10;;;-2.10;99.90;;;;;;5001289;28;20125;-78
2021/12/25 06:56:48;;;;;;;0.00;0.00;;;-2.10;99.90;;;;;;5002151;28;20050;-77
2021/12/25 06:59:16;;;;;;;0.00;0.00;;;-2.10;99.90;;;;;;5000757;28;20195;-78
2021/12/25 07:01:42;;;;;;;0.93;0.17;;;-2.10;99.90;;;;;;4984092;28;20484;-78
2021/12/25 07:04:08;;;;;;;0.00;0.00;;;-2.10;99.90;;;;;;4967176;28;20137;-78
2021/12/25 07:06:39;;;;;;;0.00;0.00;;;-2.10;99.90;;;;;;5001867;28;20120;-78
2021/12/25 07:09:07;;;;;;;0.10;0.10;;;-2.10;99.90;;;;;;5001341;28;20142;-78
2021/12/25 07:11:33;;;;;;;0.10;0.10;;;-2.10;99.90;;;;;;4984182;28;20053;-78
2021/12/25 07:14:02;;;;;;;0.10;0.10;;;-2.10;99.90;;;;;;4982730;28;20054;-78
2021/12/25 07:16:27;;;;;;;1.80;0.50;;;-2.10;99.90;;;;;;4984047;28;20042;-78
2021/12/25 07:18:53;;;;;;;0.00;0.00;;;-2.10;99.90;;;;;;5003970;28;20385;-78
2021/12/25 07:21:18;;;;;;;0.30;0.27;;;-2.10;99.90;;;;;;4988248;28;20583;-78
2021/12/25 07:23:44;;;;;;;0.00;0.00;;;-2.10;99.90;;;;;;4987468;28;20049;-78
2021/12/25 07:26:10;;;;;;;0.00;0.00;;;-2.10;99.90;;;;;;5005469;28;20378;-78
2021/12/25 07:28:35;;;;;;;1.10;0.20;;;-2.20;99.90;;;;;;5004259;28;20048;-78
2021/12/25 07:31:01;;;;;;;0.00;0.00;;;-2.20;99.90;;;;;;4951227;28;20768;-79
2021/12/25 07:33:32;;;;;;;0.10;0.10;;;-2.20;99.90;;;;;;4985805;28;20038;-78
2021/12/25 07:35:58;;;;;;;0.00;0.00;;;-2.20;99.90;;;;;;4967726;28;20124;-78
2021/12/25 07:38:23;;;;;;;0.00;0.00;;;-2.10;99.90;;;;;;4985770;28;20045;-78
2021/12/25 07:40:49;;;;;;;0.07;0.07;;;-2.10;99.90;;;;;;4986010;28;20035;-78
2021/12/25 07:43:17;;;;;;;0.00;0.00;;;-2.10;99.90;;;;;;4984512;28;20038;-78
2021/12/25 07:45:43;;;;;;;4.03;0.77;;;-2.10;99.90;;;;;;4985258;28;20493;-78
2021/12/25 07:48:08;;;;;;;0.00;0.00;;;-2.10;99.90;;;;;;4967516;28;20112;-78
2021/12/25 07:50:35;;;;;;;0.20;0.20;;;-2.00;99.90;;;;;;4968381;28;20054;-78
2021/12/25 07:53:01;;;;;;;2.73;0.77;;;-2.00;99.90;;;;;;4985387;28;20357;-79
2021/12/25 07:55:30;;;;;;;0.83;0.30;;;-2.00;99.90;;;;;;4963294;28;20438;-79
2021/12/25 07:57:56;;;;;;;0.00;0.00;;;-2.00;99.90;;;;;;4981456;28;20128;-79
2021/12/25 08:00:22;;;;;;;0.00;0.00;;;-2.00;99.90;;;;;;4984712;28;20101;-78
2021/12/25 08:02:48;;;;;;;0.03;0.03;;;-2.00;99.90;;;;;;4981736;28;20149;-78
2021/12/25 08:05:14;;;;;;;0.00;0.00;;;-2.00;99.90;;;;;;4984957;28;20085;-78
2021/12/25 08:07:40;;;;;;;0.50;0.50;;;-2.00;99.90;;;;;;4984844;28;20038;-78
2021/12/25 08:10:13;;;;;;;0.20;0.20;;;-2.00;99.90;;;;;;4967286;28;20041;-86
2021/12/25 08:12:45;;;;;;;0.33;0.10;;;-2.00;99.90;;;;;;4983854;28;20089;-79
2021/12/25 08:15:13;;;;;;;0.10;0.10;;;-2.00;99.90;;;;;;4979364;28;20066;-79
2021/12/25 08:17:39;;;;;;;0.30;0.30;;;-2.10;99.90;;;;;;4984773;28;20142;-79
2021/12/25 08:20:05;;;;;;;0.23;0.23;;;-2.10;99.90;;;;;;4967971;28;20133;-80
2021/12/25 08:22:31;;;;;;;0.00;0.00;;;-2.10;99.90;;;;;;4985214;28;20065;-79
2021/12/25 08:24:56;;;;;;;0.10;0.10;;;-2.00;99.90;;;;;;4967209;28;20497;-79
2021/12/25 08:27:22;;;;;;;1.90;0.63;;;-2.10;99.90;;;;;;4964512;28;20045;-79
2021/12/25 08:29:47;;;;;;;0.27;0.00;;;-2.10;99.90;;;;;;4975915;28;20042;-78
2021/12/25 08:32:13;;;;;;;0.77;0.77;;;-2.10;99.90;;;;;;4967899;28;20046;-79
2021/12/25 08:34:40;;;;;;;0.33;0.33;;;-2.10;99.90;;;;;;4963523;28;20054;-79
2021/12/25 08:37:06;;;;;;;0.30;0.30;;;-2.10;99.90;;;;;;4975851;28;20045;-78
2021/12/25 08:39:32;;;;;;;0.70;0.00;;;-2.10;99.90;;;;;;4983607;28;20044;-79
2021/12/25 08:42:02;;;;;;;0.07;0.07;;;-2.10;99.90;;;;;;4982945;28;20042;-79
2021/12/25 08:44:39;;;;;;;1.50;0.77;;;-2.10;99.90;;;;;;4968371;28;20137;-78
2021/12/25 08:47:07;;;;;;;0.00;0.00;;;-2.10;99.90;;;;;;4966169;28;20100;-81
2021/12/25 08:49:34;;;;;;;0.10;0.10;;;-2.10;99.90;;;;;;4964267;28;20513;-80
2021/12/25 08:52:03;;;;;;;0.03;0.03;;;-2.10;99.90;;;;;;4966639;28;20129;-79
2021/12/25 08:54:29;;;;;;;0.00;0.00;;;-2.10;99.90;;;;;;4982646;28;20053;-81
2021/12/25 08:56:55;;;;;;;2.00;0.40;;;-2.20;99.90;;;;;;4950311;28;20054;-81
2021/12/25 08:59:20;;;;;;;0.00;0.00;;;-2.10;99.90;;;;;;4966626;28;20034;-80
2021/12/25 09:01:47;;;;;;;0.87;0.87;;;-2.10;99.90;;;;;;4971650;28;20397;-80
2021/12/25 09:04:13;;;;;;;5.97;1.80;;;-2.10;99.90;;;;;;4948635;28;20273;-79
2021/12/25 09:06:39;;;;;;;1.70;1.60;;;-2.10;99.90;;;;;;4964959;28;20046;-79
2021/12/25 09:09:06;;;;;;;4.07;2.67;;;-2.10;99.90;;;;;;4965628;28;20041;-79
2021/12/25 09:11:33;;;;;;;10.13;4.37;;;-2.10;99.90;;;;;;4947407;28;20110;-78
2021/12/25 09:13:58;;;;;;;0.87;0.53;;;-2.10;99.90;;;;;;4963624;28;20043;-79
2021/12/25 09:16:24;;;;;;;1.50;0.87;;;-2.10;99.90;;;;;;4951052;28;20034;-78
2021/12/25 09:18:49;;;;;;;0.47;0.47;;;-2.10;99.90;;;;;;4973889;28;20129;-78
2021/12/25 09:21:15;;;;;;;0.83;0.67;;;-2.10;99.90;;;;;;4961630;28;20123;-79
2021/12/25 09:23:41;;;;;;;0.53;0.53;;;-2.00;99.90;;;;;;4987587;28;20390;-78
2021/12/25 09:26:07;;;;;;;0.00;0.00;;;-2.00;99.90;;;;;;4990899;28;20045;-78
2021/12/25 09:28:32;;;;;;;4.83;0.23;;;-2.00;99.90;;;;;;4982644;28;20050;-78
2021/12/25 09:30:58;;;;;;;1.20;0.57;;;-2.00;99.90;;;;;;4966973;28;20540;-79
2021/12/25 09:33:24;;;;;;;0.10;0.10;;;-2.00;99.90;;;;;;4966079;28;20043;-79
2021/12/25 09:35:50;;;;;;;3.10;0.97;;;-1.90;99.90;;;;;;4959857;28;20105;-79
2021/12/25 09:38:15;;;;;;;2.00;1.30;;;-1.90;99.90;;;;;;4975197;28;20050;-79
2021/12/25 09:40:41;;;;;;;22.13;3.33;;;-2.00;99.90;;;;;;4967122;28;20077;-78
2021/12/25 09:43:07;;;;;;;2.37;2.20;;;-1.90;99.90;;;;;;4971192;28;20163;-79
2021/12/25 09:45:33;;;;;;;3.87;2.83;;;-1.90;99.90;;;;;;4965334;28;20481;-79
2021/12/25 09:47:58;;;;;;;6.23;2.27;;;-1.90;99.90;;;;;;4956438;28;20042;-79
2021/12/25 09:50:24;;;;;;;0.67;0.67;;;-1.90;99.90;;;;;;4980629;28;20039;-79
2021/12/25 09:52:50;;;;;;;1.07;0.30;;;-1.90;99.90;;;;;;4981592;28;20125;-79
2021/12/25 09:55:16;;;;;;;0.00;0.00;;;-1.80;99.90;;;;;;4957914;28;20039;-78
2021/12/25 09:57:42;;;;;;;0.10;0.10;;;-1.80;99.90;;;;;;4970284;28;20109;-78
2021/12/25 10:00:12;;;;;;;0.00;0.00;;;-1.80;99.90;;;;;;4956335;28;20046;-77
2021/12/25 10:02:50;;;;;;;0.10;0.10;;;-1.80;99.90;;;;;;4970911;28;20054;-77
2021/12/25 10:05:34;;;;;;;0.10;0.10;;;-1.80;99.90;;;;;;4950602;28;20053;-78
2021/12/25 10:08:01;;;;;;;2.90;0.20;;;-1.70;99.90;;;;;;4957476;28;20039;-78
2021/12/25 10:10:42;;;;;;;0.03;0.03;;;-1.70;99.90;;;;;;4975312;28;20035;-78
2021/12/25 10:13:36;;;;;;;0.20;0.20;;;-1.70;99.90;;;;;;4964611;28;20134;-81
2021/12/25 10:16:26;;;;;;;0.40;0.40;;;-1.70;99.90;;;;;;4956551;28;20050;-80
2021/12/25 10:18:55;;;;;;;0.00;0.00;;;-1.70;99.90;;;;;;4963142;28;20051;-79
2021/12/25 10:21:28;;;;;;;0.00;0.00;;;-1.70;99.90;;;;;;4975425;28;20035;-78
2021/12/25 10:24:15;;;;;;;0.00;0.00;;;-1.60;99.90;;;;;;4945572;28;20524;-79
2021/12/25 10:26:43;;;;;;;0.30;0.30;;;-1.60;99.90;;;;;;4968459;28;20038;-84
2021/12/25 10:29:26;;;;;;;0.00;0.00;;;-1.70;99.90;;;;;;4967477;28;20038;-83
2021/12/25 10:31:55;;;;;;;0.40;0.40;;;-1.60;99.90;;;;;;4982091;28;20513;-82
2021/12/25 10:34:24;;;;;;;0.47;0.47;;;-1.60;99.90;;;;;;4968203;28;20109;-79
2021/12/25 10:36:51;;;;;;;0.00;0.00;;;-1.60;99.90;;;;;;4951159;28;20104;-80
2021/12/25 10:39:23;;;;;;;0.23;0.23;;;-1.60;99.90;;;;;;4970667;28;20049;-80
2021/12/25 10:41:56;;;;;;;2.65;0.65;;;-1.60;99.90;;;;;;4960450;28;20053;-80
2021/12/25 10:44:28;;;;;;;0.57;0.57;;;-1.60;99.90;;;;;;4947443;28;20042;-82
2021/12/25 10:46:57;;;;;;;0.00;0.00;;;-1.50;99.90;;;;;;4963935;28;20113;-81
2021/12/25 10:49:25;;;;;;;1.03;0.60;;;-1.50;99.90;;;;;;4972877;28;20054;-78
2021/12/25 10:51:51;;;;;;;0.00;0.00;;;-1.50;99.90;;;;;;4971227;28;20039;-84
2021/12/25 10:54:19;;;;;;;0.00;0.00;;;-1.40;99.90;;;;;;4970795;28;20409;-84
2021/12/25 10:56:49;;;;;;;1.07;0.67;;;-1.50;99.90;;;;;;4957784;28;20504;-84
2021/12/25 10:59:18;;;;;;;0.63;0.47;;;-1.50;99.90;;;;;;4953811;28;20050;-84
2021/12/25 11:01:49;;;;;;;0.87;0.10;;;-1.50;99.90;;;;;;4951433;28;20636;-79
2021/12/25 11:04:28;;;;;;;3.00;0.50;;;-1.50;99.90;;;;;;4970316;28;20058;-78
2021/12/25 11:06:55;;;;;;;0.00;0.00;;;-1.50;99.90;;;;;;4960733;28;20052;-78
2021/12/25 11:09:21;;;;;;;0.10;0.10;;;-1.40;99.90;;;;;;4970103;28;20042;-79
2021/12/25 11:12:14;;;;;;;0.10;0.10;;;-1.40;99.90;;;;;;4960487;28;20058;-79
2021/12/25 11:14:39;;;;;;;0.00;0.00;;;-1.40;99.90;;;;;;4961785;28;20034;-78
2021/12/25 11:17:21;;;;;;;0.10;0.10;;;-1.40;99.90;;;;;;4974091;28;20417;-78
2021/12/25 11:19:56;;;;;;;0.15;0.00;;;-1.40;99.90;;;;;;4960953;28;20648;-78
2021/12/25 11:22:22;;;;;;;2.93;0.37;;;-1.30;99.90;;;;;;4963406;28;20049;-78
2021/12/25 11:24:51;;;;;;;0.10;0.00;;;-1.40;99.90;;;;;;4964311;28;20046;-79
2021/12/25 11:27:17;;;;;;;0.77;0.43;;;-1.30;99.90;;;;;;4972855;28;20117;-78
2021/12/25 11:29:42;;;;;;;0.53;0.50;;;-1.30;99.90;;;;;;4941512;28;20129;-78
2021/12/25 11:32:16;;;;;;;0.00;0.00;;;-1.30;99.90;;;;;;4967508;28;20033;-78
2021/12/25 11:34:42;;;;;;;0.30;0.30;;;-1.30;99.90;;;;;;4977170;28;20047;-78
2021/12/25 11:37:07;;;;;;;2.57;0.77;;;-1.30;99.90;;;;;;4980047;28;20035;-78
2021/12/25 11:39:34;;;;;;;0.00;0.00;;;-1.20;99.90;;;;;;4953763;28;20057;-77
2021/12/25 11:42:09;;;;;;;0.00;0.00;;;-1.30;99.90;;;;;;4952422;28;20378;-78
2021/12/25 11:44:43;;;;;;;0.37;0.13;;;-1.30;99.90;;;;;;4979894;28;20568;-78
2021/12/25 11:47:27;;;;;;;0.10;0.10;;;-1.20;99.90;;;;;;4974748;28;20082;-78
2021/12/25 11:49:54;;;;;;;0.10;0.10;;;-1.30;99.90;;;;;;4954948;28;20292;-78
2021/12/25 11:52:24;;;;;;;0.00;0.00;;;-1.20;99.90;;;;;;4948973;28;20192;-78
2021/12/25 11:57:48;;;;;;;0.10;0.10;;;-1.20;99.90;;;;;;4974051;28;20054;-78
2021/12/25 12:00:37;;;;;;;0.40;0.30;;;-1.20;99.90;;;;;;4983072;28;20413;-78
2021/12/25 12:03:04;;;;;;;0.50;0.10;;;-1.20;99.90;;;;;;4977763;28;20157;-77
2021/12/25 12:05:33;;;;;;;0.83;0.57;;;-1.20;99.90;;;;;;4974285;28;20137;-79
2021/12/25 12:08:04;;;;;;;0.20;0.10;;;-1.20;99.90;;;;;;4972849;28;20035;-76
2021/12/25 12:10:50;;;;;;;0.20;0.13;;;-1.20;99.90;;;;;;4981165;28;20548;-77
2021/12/25 12:13:27;;;;;;;0.00;0.00;;;-1.20;99.90;;;;;;4948747;28;20030;-77
2021/12/25 12:15:56;;;;;;;0.20;0.20;;;-1.10;99.90;;;;;;4965370;28;20047;-78
2021/12/25 12:18:28;;;;;;;0.00;0.00;;;-1.10;99.90;;;;;;4978554;28;20113;-78
2021/12/25 12:21:00;;;;;;;0.00;0.00;;;-1.10;99.90;;;;;;4975626;28;20047;-77
2021/12/25 12:23:55;;;;;;;0.20;0.20;;;-1.10;99.90;;;;;;4965331;28;20107;-80
2021/12/25 12:26:45;;;;;;;0.10;0.10;;;-1.10;99.90;;;;;;4966156;28;20054;-77
2021/12/25 12:29:12;;;;;;;0.00;0.00;;;-1.10;99.90;;;;;;4947086;28;21368;-79
2021/12/25 12:31:48;;;;;;;0.00;0.00;;;-1.10;99.90;;;;;;4979653;28;20042;-77
2021/12/25 12:34:33;;;;;;;0.00;0.00;;;-1.10;99.90;;;;;;4973751;28;20569;-79
2021/12/25 12:37:14;;;;;;;0.17;0.17;;;-1.00;99.90;;;;;;4958996;28;20050;-78
2021/12/25 12:39:57;;;;;;;1.27;1.17;;;-1.00;99.90;;;;;;4968214;28;20064;-78
2021/12/25 12:42:44;;;;;;;0.10;0.10;;;-1.00;99.90;;;;;;4952254;28;20051;-78
2021/12/25 12:45:29;;;;;;;0.23;0.23;;;-1.00;99.90;;;;;;4965464;28;20082;-78
2021/12/25 12:48:07;;;;;;;1.20;0.17;;;-1.00;99.90;;;;;;4965758;28;20476;-79
2021/12/25 12:50:34;;;;;;;0.10;0.03;;;-1.00;99.90;;;;;;4983608;28;20541;-78
2021/12/25 12:53:03;;;;;;;1.40;0.70;;;-1.00;99.90;;;;;;4984057;28;20109;-78
2021/12/25 12:55:34;;;;;;;0.50;0.30;;;-1.00;99.90;;;;;;4984665;28;20043;-78
2021/12/25 12:58:22;;;;;;;0.03;0.03;;;-1.00;99.90;;;;;;4967364;28;20061;-80
2021/12/25 13:01:02;;;;;;;0.17;0.17;;;-1.00;99.90;;;;;;4975693;28;20282;-80
2021/12/25 13:03:29;;;;;;;0.67;0.37;;;-1.00;99.90;;;;;;4972665;28;20084;-79
2021/12/25 13:06:04;;;;;;;0.30;0.30;;;-1.00;99.90;;;;;;4986775;28;20441;-78
2021/12/25 13:08:33;;;;;;;0.77;0.77;;;-1.00;99.90;;;;;;4971092;28;20496;-79
2021/12/25 13:11:20;;;;;;;2.03;0.90;;;-1.00;99.90;;;;;;4972862;28;20077;-78
2021/12/25 13:13:54;;;;;;;0.10;0.10;;;-1.00;99.90;;;;;;4974514;28;20042;-78
2021/12/25 13:16:24;;;;;;;0.00;0.00;;;-1.00;99.90;;;;;;4964852;28;20339;-78
2021/12/25 13:18:54;;;;;;;1.60;0.30;;;-1.00;99.90;;;;;;4969183;28;20039;-78
2021/12/25 13:21:27;;;;;;;4.90;0.57;;;-1.00;99.90;;;;;;4993111;28;20038;-78
2021/12/25 13:23:57;;;;;;;0.87;0.20;;;-1.00;99.90;;;;;;4968405;28;20046;-85
2021/12/25 13:26:48;;;;;;;0.17;0.17;;;-1.00;99.90;;;;;;4989006;28;20057;-84
2021/12/25 13:29:19;;;;;;;0.17;0.17;;;-1.00;99.90;;;;;;4971871;28;20053;-90
2021/12/25 13:31:46;;;;;;;0.03;0.03;;;-1.00;99.90;;;;;;4967595;28;20041;-86
2021/12/25 13:34:21;;;;;;;0.07;0.07;;;-1.00;99.90;;;;;;4979700;28;20046;-84
2021/12/25 13:37:13;;;;;;;0.20;0.10;;;-1.00;99.90;;;;;;4990684;28;20048;-91
2021/12/25 13:39:40;;;;;;;0.32;0.32;;;-1.00;99.90;;;;;;4983630;28;20045;-80
2021/12/25 13:42:15;;;;;;;0.10;0.10;;;-1.00;99.90;;;;;;4984398;28;20489;-90
2021/12/25 13:44:44;;;;;;;1.03;0.10;;;-1.00;99.90;;;;;;4963709;28;20336;-84
2021/12/25 13:47:10;;;;;;;1.60;0.40;;;-1.00;99.90;;;;;;4961777;28;20471;-80
2021/12/25 13:49:48;;;;;;;1.30;0.90;;;-1.00;99.90;;;;;;4968790;28;20108;-86
2021/12/25 13:52:22;;;;;;;0.27;0.27;;;-1.00;99.90;;;;;;4987257;28;20056;-86
2021/12/25 13:54:53;;;;;;;0.27;0.27;;;-1.00;99.90;;;;;;4990530;28;20053;-85
2021/12/25 13:57:19;;;;;;;0.13;0.10;;;-1.00;99.90;;;;;;4969384;28;20054;-92
2021/12/25 13:59:53;;;;;;;0.17;0.17;;;-1.00;99.90;;;;;;4924010;23;1033745;-86
2021/12/25 14:02:29;;;;;;;0.10;0.10;;;-1.00;99.90;;;;;;5001373;28;20053;-86
2021/12/25 14:05:05;;;;;;;0.00;0.00;;;-1.00;99.90;;;;;;4994180;28;20080;-91
2021/12/25 14:07:31;;;;;;;0.50;0.50;;;-0.90;99.90;;;;;;4966276;28;20073;-94
2021/12/25 14:10:14;;;;;;;0.00;0.00;;;-1.00;99.90;;;;;;4979236;28;20081;-88
2021/12/25 14:12:41;;;;;;;;;;;-1.00;99.90;;;;;;4980403;28;20200;-87